Time;durP1;ratioP1;P1;durP2;ratioP2;P2;SDS_P1;SDS_P2;PMS_P1;PMS_P2;Temp;Humidity;BMP_temperature;BMP_pressure;BME280_temperature;BME280_humidity;BME280_pressure;Samples;Min_cycle;Max_cycle;Signal;HPM_P1;HPM_P2
2022/09/09 00:00:56;;;;;;;4.57;3.70;;;14.90;99.90;;;;;;5048860;28;20468;-67
2022/09/09 00:03:27;;;;;;;3.43;2.60;;;14.90;99.90;;;;;;5048200;28;20483;-67
2022/09/09 00:06:04;;;;;;;7.00;3.10;;;15.00;99.90;;;;;;5049105;28;20998;-67
2022/09/09 00:08:44;;;;;;;5.70;3.23;;;15.00;99.90;;;;;;5048577;28;20448;-67
2022/09/09 00:11:15;;;;;;;6.07;3.30;;;15.00;99.90;;;;;;5048957;28;20471;-67
2022/09/09 00:13:48;;;;;;;5.13;4.00;;;15.10;99.90;;;;;;5047913;28;20451;-67
2022/09/09 00:16:19;;;;;;;8.37;3.43;;;15.10;99.90;;;;;;5049125;28;20779;-67
2022/09/09 00:18:56;;;;;;;8.90;4.27;;;15.10;99.90;;;;;;5048511;28;20502;-67
2022/09/09 00:21:27;;;;;;;4.60;3.83;;;15.20;99.90;;;;;;5045702;28;20464;-67
2022/09/09 00:23:55;;;;;;;6.73;4.10;;;15.10;99.90;;;;;;5048392;28;20451;-67
2022/09/09 00:26:31;;;;;;;5.63;4.03;;;15.20;99.90;;;;;;5048526;28;20488;-67
2022/09/09 00:29:05;;;;;;;4.10;3.10;;;15.20;99.90;;;;;;5048666;28;21016;-67
2022/09/09 00:31:33;;;;;;;8.47;4.17;;;15.20;99.90;;;;;;5048325;28;20930;-67
2022/09/09 00:34:06;;;;;;;6.90;3.83;;;15.20;99.90;;;;;;5048334;28;20448;-67
2022/09/09 00:36:35;;;;;;;6.50;3.40;;;15.20;99.90;;;;;;5048377;28;20448;-67
2022/09/09 00:39:03;;;;;;;5.70;3.60;;;15.20;99.90;;;;;;5048536;28;20457;-67
2022/09/09 00:41:40;;;;;;;5.27;3.27;;;15.30;99.90;;;;;;5048040;28;20480;-67
2022/09/09 00:44:25;;;;;;;5.57;3.73;;;15.40;99.90;;;;;;5048415;28;20455;-67
2022/09/09 00:47:05;;;;;;;7.97;3.87;;;15.50;99.90;;;;;;5048423;28;20491;-67
2022/09/09 00:49:46;;;;;;;4.80;3.33;;;15.50;99.90;;;;;;5048082;28;20448;-67
2022/09/09 00:52:28;;;;;;;4.53;3.07;;;15.60;99.90;;;;;;5048149;28;20471;-67
2022/09/09 00:55:04;;;;;;;6.90;3.10;;;15.70;99.90;;;;;;5048257;28;20965;-66
2022/09/09 00:57:32;;;;;;;4.10;2.83;;;15.80;99.90;;;;;;5047805;28;20454;-67
2022/09/09 01:00:18;;;;;;;4.57;2.90;;;15.80;99.90;;;;;;5048298;28;20448;-67
2022/09/09 01:03:10;;;;;;;5.30;3.03;;;15.80;99.90;;;;;;5047520;28;20444;-67
2022/09/09 01:05:46;;;;;;;6.10;2.90;;;15.80;99.90;;;;;;5042248;28;20468;-67
2022/09/09 01:08:28;;;;;;;3.40;2.47;;;15.90;99.90;;;;;;5048257;28;20458;-67
2022/09/09 01:10:56;;;;;;;5.60;2.80;;;15.90;99.90;;;;;;5048128;28;20468;-67
2022/09/09 01:13:26;;;;;;;7.67;2.90;;;16.00;99.90;;;;;;5047839;28;20456;-67
2022/09/09 01:15:55;;;;;;;4.63;3.17;;;16.00;99.90;;;;;;5047290;28;20454;-67
2022/09/09 01:18:27;;;;;;;4.13;3.13;;;16.00;99.90;;;;;;5041322;28;20455;-67
2022/09/09 01:21:02;;;;;;;6.00;2.80;;;16.00;99.90;;;;;;5044401;28;20682;-67
2022/09/09 01:23:44;;;;;;;4.00;3.00;;;16.00;99.90;;;;;;5047393;28;20454;-67
2022/09/09 01:26:26;;;;;;;5.57;2.67;;;15.90;99.90;;;;;;5047706;28;20487;-67
2022/09/09 01:28:53;;;;;;;3.07;2.60;;;15.90;99.90;;;;;;5047864;28;20847;-67
2022/09/09 01:31:23;;;;;;;6.20;2.67;;;15.80;99.90;;;;;;5048293;28;20842;-67
2022/09/09 01:33:50;;;;;;;6.47;2.73;;;15.80;99.90;;;;;;5047268;28;20952;-67
2022/09/09 01:36:25;;;;;;;5.43;2.50;;;15.90;99.90;;;;;;5047938;28;20929;-67
2022/09/09 01:38:53;;;;;;;3.80;2.20;;;15.90;99.90;;;;;;5048365;28;20447;-67
2022/09/09 01:41:20;;;;;;;4.50;2.27;;;15.90;99.90;;;;;;5047601;28;20522;-67
2022/09/09 01:43:48;;;;;;;7.20;2.47;;;15.90;99.90;;;;;;5047223;28;20456;-67
2022/09/09 01:46:17;;;;;;;3.60;2.50;;;15.90;99.90;;;;;;5047875;28;20942;-67
2022/09/09 01:48:44;;;;;;;3.90;2.67;;;16.00;99.90;;;;;;5047383;28;20448;-67
2022/09/09 01:51:11;;;;;;;7.30;2.37;;;16.00;99.90;;;;;;5047742;28;20468;-67
2022/09/09 01:54:17;;;;;;;4.17;3.00;;;16.00;99.90;;;;;;5046963;28;20506;-67
2022/09/09 01:56:54;;;;;;;5.90;2.43;;;16.00;99.90;;;;;;5046024;28;20456;-67
2022/09/09 01:59:38;;;;;;;5.67;2.57;;;16.00;99.90;;;;;;5047689;28;20447;-67
2022/09/09 02:02:19;;;;;;;5.03;2.60;;;16.00;99.90;;;;;;5046918;28;20494;-67
2022/09/09 02:04:49;;;;;;;3.57;2.10;;;16.10;99.90;;;;;;5046592;28;20451;-67
2022/09/09 02:07:31;;;;;;;3.77;2.20;;;16.00;99.90;;;;;;5047670;28;20963;-67
2022/09/09 02:10:02;;;;;;;4.67;2.77;;;16.00;99.90;;;;;;5047517;28;20451;-67
2022/09/09 02:12:30;;;;;;;3.50;2.80;;;15.90;99.90;;;;;;5046663;28;20463;-67
2022/09/09 02:15:04;;;;;;;3.90;2.50;;;15.80;99.90;;;;;;5047559;28;20490;-67
2022/09/09 02:17:36;;;;;;;4.43;2.40;;;15.70;99.90;;;;;;5046916;28;20439;-67
2022/09/09 02:20:08;;;;;;;5.27;2.77;;;15.60;99.90;;;;;;5047224;28;20955;-67
2022/09/09 02:22:39;;;;;;;6.23;2.73;;;15.50;99.90;;;;;;5046707;28;20464;-67
2022/09/09 02:25:19;;;;;;;3.27;2.30;;;15.40;99.90;;;;;;5047327;28;20525;-67
2022/09/09 02:27:48;;;;;;;3.60;2.40;;;15.20;99.90;;;;;;5050681;28;20578;-67
2022/09/09 02:30:16;;;;;;;4.07;2.70;;;15.10;99.90;;;;;;5051017;28;20451;-67
2022/09/09 02:32:46;;;;;;;4.90;2.57;;;15.00;99.90;;;;;;5050517;28;20467;-67
2022/09/09 02:35:14;;;;;;;7.17;2.60;;;14.90;99.90;;;;;;5050993;28;20961;-67
2022/09/09 02:37:43;;;;;;;4.37;2.30;;;14.90;99.90;;;;;;5050553;28;20451;-67
2022/09/09 02:40:13;;;;;;;4.33;2.60;;;14.90;99.90;;;;;;5050868;28;20455;-67
2022/09/09 02:42:40;;;;;;;4.93;2.93;;;14.80;99.90;;;;;;5050000;28;20471;-67
2022/09/09 02:45:09;;;;;;;6.43;2.50;;;14.80;99.90;;;;;;5050586;28;20522;-67
2022/09/09 02:47:43;;;;;;;4.77;2.50;;;14.70;99.90;;;;;;5050060;28;20480;-67
2022/09/09 02:50:15;;;;;;;4.83;3.10;;;14.60;99.90;;;;;;5050367;28;20456;-67
2022/09/09 02:52:55;;;;;;;4.00;2.33;;;14.60;99.90;;;;;;5049932;28;20483;-67
2022/09/09 02:55:36;;;;;;;5.27;2.97;;;14.50;99.90;;;;;;5050443;28;20452;-67
2022/09/09 02:58:05;;;;;;;2.40;2.07;;;14.50;99.90;;;;;;5050267;28;20497;-67
2022/09/09 03:00:33;;;;;;;2.73;2.20;;;14.40;99.90;;;;;;5049599;28;20452;-67
2022/09/09 03:03:01;;;;;;;3.80;2.90;;;14.20;99.90;;;;;;5050163;28;20872;-67
2022/09/09 03:05:28;;;;;;;6.03;2.73;;;14.20;99.90;;;;;;5049879;28;20447;-67
2022/09/09 03:07:54;;;;;;;5.40;2.70;;;14.00;99.90;;;;;;5050137;28;20483;-69
2022/09/09 03:10:21;;;;;;;5.30;2.63;;;14.00;99.90;;;;;;5049981;28;20495;-71
2022/09/09 03:12:48;;;;;;;3.73;2.93;;;14.00;99.90;;;;;;5049928;28;20471;-67
2022/09/09 03:15:15;;;;;;;5.03;2.70;;;14.00;99.90;;;;;;5049953;28;20455;-67
2022/09/09 03:17:42;;;;;;;3.57;2.27;;;13.90;99.90;;;;;;5050495;28;20518;-66
2022/09/09 03:20:10;;;;;;;2.73;2.40;;;13.90;99.90;;;;;;5050763;28;20959;-67
2022/09/09 03:22:37;;;;;;;3.20;2.63;;;13.90;99.90;;;;;;5051207;28;20486;-67
2022/09/09 03:25:05;;;;;;;3.70;2.30;;;13.90;99.90;;;;;;5051590;28;20463;-67
2022/09/09 03:27:32;;;;;;;3.10;2.33;;;13.90;99.90;;;;;;5051205;28;20855;-67
2022/09/09 03:29:59;;;;;;;4.10;2.40;;;14.00;99.90;;;;;;5051609;28;20451;-67
2022/09/09 03:32:26;;;;;;;3.80;2.23;;;14.00;99.90;;;;;;5050940;28;20460;-66
2022/09/09 03:34:53;;;;;;;3.27;2.30;;;14.10;99.90;;;;;;5051132;28;20501;-67
2022/09/09 03:37:22;;;;;;;4.60;2.73;;;14.10;99.90;;;;;;5049803;28;20447;-67
2022/09/09 03:39:49;;;;;;;4.73;2.27;;;14.10;99.90;;;;;;5051239;28;20444;-67
2022/09/09 03:42:18;;;;;;;8.30;2.23;;;14.20;99.90;;;;;;5050795;28;20970;-67
2022/09/09 03:44:49;;;;;;;4.23;3.00;;;14.30;99.90;;;;;;5051120;28;20878;-67
2022/09/09 03:47:18;;;;;;;4.87;2.47;;;14.40;99.90;;;;;;5050897;28;20518;-65
2022/09/09 03:49:44;;;;;;;4.73;2.50;;;14.40;99.90;;;;;;5050969;28;20440;-64
2022/09/09 03:52:11;;;;;;;4.30;2.17;;;14.50;99.90;;;;;;5050808;28;20471;-64
2022/09/09 03:54:42;;;;;;;5.17;2.40;;;14.40;99.90;;;;;;5050809;28;20447;-64
2022/09/09 03:57:09;;;;;;;4.27;2.07;;;14.30;99.90;;;;;;5051345;28;20448;-64
2022/09/09 03:59:36;;;;;;;3.87;2.30;;;14.30;99.90;;;;;;5051021;28;20456;-66
2022/09/09 04:02:04;;;;;;;2.70;1.73;;;14.30;99.90;;;;;;5050365;28;20471;-67
2022/09/09 04:04:31;;;;;;;3.50;1.90;;;14.30;99.90;;;;;;5050784;28;20451;-67
2022/09/09 04:06:57;;;;;;;3.33;2.30;;;14.30;99.90;;;;;;5050732;28;20472;-67
2022/09/09 04:09:24;;;;;;;3.90;2.53;;;14.40;99.90;;;;;;5050545;28;20440;-67
2022/09/09 04:11:52;;;;;;;6.83;2.83;;;14.50;99.90;;;;;;5050481;28;20835;-67
2022/09/09 04:14:20;;;;;;;5.47;2.50;;;14.40;99.90;;;;;;5050807;28;21020;-67
2022/09/09 04:16:47;;;;;;;3.43;2.00;;;14.50;99.90;;;;;;5050602;28;20950;-67
2022/09/09 04:19:14;;;;;;;2.57;2.07;;;14.60;99.90;;;;;;5050746;28;20435;-67
2022/09/09 04:21:41;;;;;;;5.07;2.63;;;14.50;99.90;;;;;;5050339;28;20471;-67
2022/09/09 04:24:08;;;;;;;3.10;1.90;;;14.60;99.90;;;;;;5050414;28;20954;-67
2022/09/09 04:26:37;;;;;;;2.23;2.00;;;14.60;99.90;;;;;;5050547;28;20446;-67
2022/09/09 04:29:06;;;;;;;4.10;2.07;;;14.60;99.90;;;;;;5050337;28;20942;-67
2022/09/09 04:31:33;;;;;;;2.77;2.20;;;14.70;99.90;;;;;;5049812;28;20468;-67
2022/09/09 04:34:04;;;;;;;3.10;2.17;;;14.80;99.90;;;;;;5049621;28;20837;-67
2022/09/09 04:36:31;;;;;;;1.93;1.70;;;14.80;99.90;;;;;;5050344;28;20450;-67
2022/09/09 04:38:58;;;;;;;2.40;2.00;;;14.80;99.90;;;;;;5050236;28;20455;-64
2022/09/09 04:41:25;;;;;;;3.07;2.23;;;14.80;99.90;;;;;;5049880;28;20468;-64
2022/09/09 04:43:53;;;;;;;5.07;2.10;;;14.80;99.90;;;;;;5049895;28;20451;-64
2022/09/09 04:46:22;;;;;;;4.87;1.90;;;14.90;99.90;;;;;;5050096;28;20462;-64
2022/09/09 04:48:49;;;;;;;2.50;2.23;;;15.00;99.90;;;;;;5049649;28;20483;-64
2022/09/09 04:51:17;;;;;;;4.63;2.03;;;15.00;99.90;;;;;;5049894;28;20464;-64
2022/09/09 04:53:43;;;;;;;2.93;1.87;;;15.10;99.90;;;;;;5049622;28;20440;-64
2022/09/09 04:56:12;;;;;;;5.20;2.03;;;15.10;99.90;;;;;;5049829;28;20444;-67
2022/09/09 04:58:39;;;;;;;4.63;2.07;;;15.20;99.90;;;;;;5049901;28;20462;-67
2022/09/09 05:01:07;;;;;;;3.63;2.17;;;15.10;99.90;;;;;;5049654;28;20472;-67
2022/09/09 05:03:36;;;;;;;4.07;2.00;;;15.10;99.90;;;;;;5049338;28;20497;-67
2022/09/09 05:06:08;;;;;;;4.43;2.60;;;15.00;99.90;;;;;;5049921;28;20451;-67
2022/09/09 05:08:35;;;;;;;1.93;1.70;;;15.00;99.90;;;;;;5049441;28;20490;-67
2022/09/09 05:11:01;;;;;;;3.60;2.00;;;15.00;99.90;;;;;;5049762;28;20471;-67
2022/09/09 05:13:28;;;;;;;2.90;2.33;;;14.90;99.90;;;;;;5049547;28;21161;-67
2022/09/09 05:15:56;;;;;;;3.93;1.80;;;14.80;99.90;;;;;;5049738;28;20436;-67
2022/09/09 05:18:23;;;;;;;3.90;2.23;;;14.80;99.90;;;;;;5049595;28;20922;-67
2022/09/09 05:20:52;;;;;;;4.20;2.30;;;14.80;99.90;;;;;;5049777;28;20848;-67
2022/09/09 05:23:18;;;;;;;3.97;2.10;;;14.70;99.90;;;;;;5049333;28;20440;-67
2022/09/09 05:25:56;;;;;;;4.13;2.17;;;14.90;99.90;;;;;;5049329;28;20463;-67
2022/09/09 05:28:25;;;;;;;4.03;2.23;;;14.90;99.90;;;;;;5049477;28;20525;-67
2022/09/09 05:31:00;;;;;;;2.10;1.77;;;15.00;99.90;;;;;;5049462;28;20471;-67
2022/09/09 05:33:27;;;;;;;3.37;2.30;;;15.10;99.90;;;;;;5049357;28;20454;-67
2022/09/09 05:35:59;;;;;;;5.40;2.10;;;15.20;99.90;;;;;;5049518;28;20459;-67
2022/09/09 05:38:26;;;;;;;3.80;1.77;;;15.20;99.90;;;;;;5049587;28;20437;-67
2022/09/09 05:40:54;;;;;;;3.93;2.40;;;15.30;99.90;;;;;;5049094;28;20658;-67
2022/09/09 05:43:20;;;;;;;4.23;2.07;;;15.40;99.90;;;;;;5049529;28;20455;-67
2022/09/09 05:45:48;;;;;;;5.70;2.07;;;15.50;99.90;;;;;;5049411;28;20827;-67
2022/09/09 05:48:15;;;;;;;4.83;2.40;;;15.50;99.90;;;;;;5049175;28;20517;-67
2022/09/09 05:50:42;;;;;;;5.10;2.00;;;15.70;99.90;;;;;;5049128;28;20537;-67
2022/09/09 05:53:10;;;;;;;3.00;2.20;;;15.80;99.90;;;;;;5049209;28;20929;-67
2022/09/09 05:55:37;;;;;;;4.93;1.97;;;15.90;99.90;;;;;;5049088;28;21135;-67
2022/09/09 05:58:04;;;;;;;5.40;2.23;;;16.00;99.90;;;;;;5049251;28;20448;-67
2022/09/09 06:00:31;;;;;;;4.90;2.10;;;16.00;99.90;;;;;;5049476;28;20440;-67
2022/09/09 06:02:58;;;;;;;2.57;2.03;;;16.00;99.90;;;;;;5052722;28;20447;-67
2022/09/09 06:05:27;;;;;;;5.20;2.10;;;16.10;99.90;;;;;;5053344;28;20451;-67
2022/09/09 06:07:54;;;;;;;11.07;2.60;;;16.30;99.90;;;;;;5052671;28;20487;-67
2022/09/09 06:10:23;;;;;;;2.37;2.13;;;16.40;99.90;;;;;;5053323;28;20516;-67
2022/09/09 06:12:49;;;;;;;3.27;1.87;;;16.60;99.90;;;;;;5052884;28;20444;-67
2022/09/09 06:15:17;;;;;;;3.00;2.07;;;16.60;99.90;;;;;;5054106;28;20428;-67
2022/09/09 06:17:45;;;;;;;5.80;2.30;;;16.70;99.90;;;;;;5053703;28;20452;-67
2022/09/09 06:20:12;;;;;;;3.00;2.03;;;16.90;99.90;;;;;;5053441;28;20459;-67
2022/09/09 06:22:40;;;;;;;9.00;3.00;;;17.00;99.90;;;;;;5052364;28;21008;-67
2022/09/09 06:25:09;;;;;;;4.63;2.50;;;17.20;99.90;;;;;;5052875;28;20546;-67
2022/09/09 06:27:37;;;;;;;7.30;2.10;;;17.30;99.90;;;;;;5052562;28;20505;-67
2022/09/09 06:30:04;;;;;;;3.93;2.23;;;17.50;99.90;;;;;;5052703;28;20454;-67
2022/09/09 06:32:34;;;;;;;4.90;1.80;;;17.60;99.90;;;;;;5052219;28;20470;-68
2022/09/09 06:35:02;;;;;;;4.73;1.70;;;17.70;99.90;;;;;;5050482;28;20996;-67
2022/09/09 06:37:29;;;;;;;4.97;2.47;;;17.80;99.90;;;;;;5051219;28;20498;-67
2022/09/09 06:39:55;;;;;;;2.00;1.80;;;17.90;99.90;;;;;;5042741;28;20455;-67
2022/09/09 06:42:22;;;;;;;5.80;2.40;;;18.00;99.90;;;;;;5042541;28;20845;-67
2022/09/09 06:44:52;;;;;;;4.33;2.40;;;18.10;99.90;;;;;;5040680;28;20464;-65
2022/09/09 06:47:18;;;;;;;2.10;1.90;;;18.10;99.90;;;;;;5042663;28;20448;-65
2022/09/09 06:49:45;;;;;;;4.10;1.90;;;18.00;99.90;;;;;;5042403;28;20463;-64
2022/09/09 06:52:12;;;;;;;4.10;1.87;;;18.10;99.90;;;;;;5042488;28;20472;-64
2022/09/09 06:54:39;;;;;;;2.93;2.30;;;18.30;99.90;;;;;;5043236;28;20448;-66
2022/09/09 06:57:07;;;;;;;3.33;2.00;;;18.40;99.90;;;;;;5043171;28;20446;-65
2022/09/09 06:59:34;;;;;;;3.57;1.87;;;18.50;99.90;;;;;;5041869;28;20441;-66
2022/09/09 07:02:02;;;;;;;3.33;1.73;;;18.70;99.90;;;;;;5040458;28;20475;-67
2022/09/09 07:04:29;;;;;;;4.03;2.00;;;18.90;99.90;;;;;;5049769;28;20447;-66
2022/09/09 07:06:55;;;;;;;3.33;2.23;;;19.00;99.90;;;;;;5051264;28;20448;-66
2022/09/09 07:09:23;;;;;;;4.30;2.40;;;19.10;99.90;;;;;;5051594;28;20510;-66
2022/09/09 07:11:52;;;;;;;3.10;2.00;;;19.20;99.90;;;;;;5050565;28;20483;-66
2022/09/09 07:14:19;;;;;;;5.10;2.37;;;19.40;99.90;;;;;;5050918;28;20441;-66
2022/09/09 07:16:47;;;;;;;3.20;1.77;;;19.50;99.90;;;;;;5048863;28;20946;-67
2022/09/09 07:19:15;;;;;;;4.20;2.00;;;19.60;99.90;;;;;;5050799;28;20448;-66
2022/09/09 07:21:43;;;;;;;5.63;2.23;;;19.70;99.90;;;;;;5042646;28;20475;-66
2022/09/09 07:24:10;;;;;;;5.33;2.40;;;19.70;99.90;;;;;;5051116;28;20447;-67
2022/09/09 07:26:38;;;;;;;3.90;1.80;;;19.80;99.90;;;;;;5050967;28;20452;-67
2022/09/09 07:29:05;;;;;;;2.23;1.70;;;19.90;99.90;;;;;;5049833;28;20491;-69
2022/09/09 07:31:34;;;;;;;3.83;2.00;;;20.00;99.90;;;;;;5044327;28;20471;-66
2022/09/09 07:34:02;;;;;;;2.23;1.63;;;20.10;99.90;;;;;;5045979;28;20514;-66
2022/09/09 07:36:32;;;;;;;3.13;1.73;;;20.00;99.90;;;;;;5043946;28;20765;-66
2022/09/09 07:39:01;;;;;;;2.13;1.70;;;20.00;99.90;;;;;;5048583;28;20440;-66
2022/09/09 07:41:30;;;;;;;4.10;2.10;;;20.00;99.90;;;;;;5047892;28;20476;-65
2022/09/09 07:43:58;;;;;;;9.23;2.73;;;20.20;99.90;;;;;;5046716;28;20448;-66
2022/09/09 07:46:27;;;;;;;4.23;2.53;;;20.10;99.90;;;;;;5048422;28;20480;-66
2022/09/09 07:48:55;;;;;;;3.60;1.80;;;20.20;99.90;;;;;;5050105;28;20509;-66
2022/09/09 07:51:26;;;;;;;3.57;2.07;;;20.50;99.90;;;;;;5050597;28;20467;-66
2022/09/09 07:53:57;;;;;;;5.70;1.83;;;20.80;99.90;;;;;;5050770;28;20443;-66
2022/09/09 07:56:24;;;;;;;4.53;2.07;;;21.00;99.90;;;;;;5049920;28;20444;-66
2022/09/09 07:58:53;;;;;;;2.03;1.50;;;20.80;99.90;;;;;;5051365;28;20466;-66
2022/09/09 08:01:22;;;;;;;3.17;1.83;;;20.40;99.90;;;;;;5050783;28;20847;-66
2022/09/09 08:03:54;;;;;;;2.33;1.63;;;20.10;99.90;;;;;;5050756;28;20206;-66
2022/09/09 08:06:21;;;;;;;5.10;2.80;;;19.90;99.90;;;;;;5051013;28;20448;-66
2022/09/09 08:08:51;;;;;;;4.57;1.73;;;19.80;99.90;;;;;;5050351;28;20853;-65
2022/09/09 08:11:19;;;;;;;5.07;1.63;;;19.90;99.90;;;;;;5048835;28;20468;-66
2022/09/09 08:13:47;;;;;;;4.60;2.07;;;20.10;99.90;;;;;;5049848;28;20445;-66
2022/09/09 08:16:16;;;;;;;3.43;2.40;;;20.30;99.90;;;;;;5045341;28;20456;-67
2022/09/09 08:18:44;;;;;;;3.43;1.87;;;20.60;99.90;;;;;;5044761;28;20546;-67
2022/09/09 08:21:13;;;;;;;3.50;2.00;;;20.70;99.90;;;;;;5049027;28;20476;-67
2022/09/09 08:23:41;;;;;;;4.73;1.53;;;20.90;99.90;;;;;;5043698;28;20452;-67
2022/09/09 08:26:10;;;;;;;3.80;1.43;;;21.10;99.90;;;;;;5037539;28;20460;-66
2022/09/09 08:28:39;;;;;;;3.00;1.70;;;21.20;99.90;;;;;;5037610;28;20496;-66
2022/09/09 08:31:11;;;;;;;2.77;1.70;;;21.20;99.90;;;;;;5036238;28;20482;-66
2022/09/09 08:33:38;;;;;;;3.50;2.00;;;21.10;99.90;;;;;;5037821;28;20448;-67
2022/09/09 08:36:06;;;;;;;3.30;1.47;;;21.20;99.90;;;;;;5037275;28;20456;-67
2022/09/09 08:38:34;;;;;;;3.40;1.90;;;21.40;99.90;;;;;;5045256;28;20495;-67
2022/09/09 08:41:13;;;;;;;3.93;1.50;;;21.70;99.90;;;;;;5038190;28;20468;-64
2022/09/09 08:43:44;;;;;;;2.00;1.13;;;22.30;99.90;;;;;;5039372;28;20455;-64
2022/09/09 08:46:17;;;;;;;3.83;1.80;;;22.70;99.90;;;;;;5045773;28;20539;-64
2022/09/09 08:48:54;;;;;;;5.57;1.70;;;22.80;99.90;;;;;;5040376;28;20490;-64
2022/09/09 08:51:22;;;;;;;2.20;1.50;;;22.70;99.90;;;;;;5038023;28;20475;-64
2022/09/09 08:53:51;;;;;;;5.67;2.00;;;22.70;99.90;;;;;;5036363;28;20456;-65
2022/09/09 08:56:21;;;;;;;4.13;1.97;;;22.90;99.90;;;;;;5038758;28;20975;-66
2022/09/09 08:58:52;;;;;;;4.60;1.70;;;22.80;99.90;;;;;;5038988;28;20974;-65
2022/09/09 09:01:40;;;;;;;3.53;1.50;;;22.80;99.90;;;;;;5047860;28;20578;-66
2022/09/09 09:04:27;;;;;;;3.20;1.60;;;23.00;99.90;;;;;;5048717;28;20518;-66
2022/09/09 09:07:04;;;;;;;2.03;1.40;;;22.80;99.90;;;;;;5045689;28;20447;-65
2022/09/09 09:09:40;;;;;;;1.43;0.90;;;22.60;99.90;;;;;;5042667;28;20522;-66
2022/09/09 09:12:16;;;;;;;4.40;1.17;;;22.50;99.90;;;;;;5049372;28;20496;-66
2022/09/09 09:14:47;;;;;;;3.63;1.30;;;22.80;99.90;;;;;;5045960;28;20459;-66
2022/09/09 09:17:16;;;;;;;3.07;1.50;;;23.20;99.90;;;;;;5048190;28;20458;-66
2022/09/09 09:19:46;;;;;;;3.23;1.20;;;23.70;99.90;;;;;;5048835;28;20444;-66
2022/09/09 09:22:19;;;;;;;7.27;1.50;;;24.00;99.90;;;;;;5048303;28;21232;-66
2022/09/09 09:24:52;;;;;;;4.20;1.17;;;24.20;99.80;;;;;;5049437;28;20513;-66
2022/09/09 09:27:33;;;;;;;7.10;1.53;;;24.30;98.10;;;;;;5049171;28;20444;-65
2022/09/09 09:30:13;;;;;;;3.67;1.47;;;24.20;99.10;;;;;;5049228;28;20467;-65
2022/09/09 09:32:44;;;;;;;1.93;1.10;;;23.30;99.90;;;;;;5046111;28;20479;-65
2022/09/09 09:35:14;;;;;;;2.90;1.20;;;21.90;99.90;;;;;;5039937;28;20468;-66
2022/09/09 09:37:43;;;;;;;4.57;1.50;;;21.30;99.90;;;;;;5042628;28;20447;-65
2022/09/09 09:40:12;;;;;;;2.37;1.10;;;21.20;99.90;;;;;;5051409;28;20860;-65
2022/09/09 09:42:47;;;;;;;4.40;1.40;;;21.10;99.90;;;;;;5052537;28;20460;-66
2022/09/09 09:45:21;;;;;;;2.93;1.17;;;21.20;99.90;;;;;;5053047;28;20448;-64
2022/09/09 09:47:59;;;;;;;2.60;1.47;;;21.20;99.90;;;;;;5053230;28;20463;-66
2022/09/09 09:50:26;;;;;;;10.00;1.60;;;21.00;99.90;;;;;;5048332;28;20475;-66
2022/09/09 09:52:57;;;;;;;3.53;1.37;;;20.90;99.90;;;;;;5052439;28;20451;-66
2022/09/09 09:55:25;;;;;;;3.63;1.00;;;20.80;99.90;;;;;;5048314;28;20501;-65
2022/09/09 09:57:53;;;;;;;5.80;1.00;;;21.00;99.90;;;;;;5051841;28;20540;-65
2022/09/09 10:00:23;;;;;;;1.87;1.10;;;21.50;99.90;;;;;;5053161;28;20796;-66
2022/09/09 10:02:52;;;;;;;1.97;1.00;;;22.00;99.80;;;;;;5048525;28;20451;-65
2022/09/09 10:05:21;;;;;;;3.00;1.10;;;22.30;99.20;;;;;;5041559;28;20444;-66
2022/09/09 10:08:01;;;;;;;3.73;1.07;;;22.60;97.40;;;;;;5052267;28;20502;-65
2022/09/09 10:10:35;;;;;;;2.20;0.97;;;23.00;97.30;;;;;;5050971;28;20519;-65
2022/09/09 10:13:12;;;;;;;3.30;1.03;;;23.40;96.80;;;;;;5042488;28;20973;-67
2022/09/09 10:15:49;;;;;;;2.77;0.80;;;23.70;95.70;;;;;;5051997;28;20466;-65
2022/09/09 10:18:36;;;;;;;2.40;1.10;;;23.90;95.80;;;;;;5052619;28;20465;-65
2022/09/09 10:21:11;;;;;;;1.90;0.80;;;23.70;94.80;;;;;;5052642;28;20471;-66
2022/09/09 10:23:57;;;;;;;2.93;1.13;;;23.70;95.20;;;;;;5052067;28;20439;-66
2022/09/09 10:26:35;;;;;;;5.00;1.30;;;23.50;95.90;;;;;;5049935;28;20448;-65
2022/09/09 10:29:18;;;;;;;2.97;0.90;;;23.90;95.90;;;;;;5052659;28;20483;-65
2022/09/09 10:32:00;;;;;;;2.03;1.00;;;24.40;95.60;;;;;;5047725;28;20483;-66
2022/09/09 10:34:47;;;;;;;1.60;0.90;;;24.90;95.10;;;;;;5038116;28;20532;-66
2022/09/09 10:37:23;;;;;;;3.60;1.20;;;25.20;93.70;;;;;;5038328;28;20451;-66
2022/09/09 10:39:58;;;;;;;3.47;1.00;;;24.70;93.80;;;;;;5044861;28;20447;-65
2022/09/09 10:42:30;;;;;;;4.53;1.30;;;24.40;93.90;;;;;;5044575;28;21157;-66
2022/09/09 10:45:09;;;;;;;1.20;1.10;;;24.50;94.30;;;;;;5043982;28;20920;-67
2022/09/09 10:47:54;;;;;;;3.20;1.40;;;24.40;93.60;;;;;;5051425;28;20463;-67
2022/09/09 10:50:53;;;;;;;2.17;1.30;;;24.40;93.90;;;;;;5042503;28;20483;-67
2022/09/09 10:53:31;;;;;;;4.23;1.30;;;24.40;94.70;;;;;;4999277;28;20451;-67
2022/09/09 10:56:02;;;;;;;3.00;1.30;;;24.50;95.60;;;;;;5049436;28;20459;-66
2022/09/09 10:58:38;;;;;;;2.83;1.37;;;24.40;96.30;;;;;;5051719;28;20821;-66
2022/09/09 11:01:13;;;;;;;2.43;1.10;;;24.20;96.10;;;;;;5051737;28;20482;-67
2022/09/09 11:03:42;;;;;;;4.83;1.60;;;24.10;95.30;;;;;;5048822;28;20443;-66
2022/09/09 11:06:15;;;;;;;2.83;1.20;;;24.00;95.80;;;;;;5044290;28;20456;-66
2022/09/09 11:08:43;;;;;;;2.23;1.30;;;23.90;97.10;;;;;;5045699;28;20448;-66
2022/09/09 11:11:17;;;;;;;3.83;1.60;;;23.80;97.30;;;;;;5051235;28;20464;-66
2022/09/09 11:13:51;;;;;;;2.90;1.10;;;23.60;98.40;;;;;;5051454;28;20450;-65
2022/09/09 11:16:26;;;;;;;2.80;1.50;;;23.80;98.70;;;;;;5050318;28;20454;-65
2022/09/09 11:19:00;;;;;;;2.90;1.50;;;23.70;97.80;;;;;;5051623;28;20439;-65
2022/09/09 11:21:31;;;;;;;3.20;1.13;;;23.20;96.50;;;;;;5051083;28;20460;-67
2022/09/09 11:24:01;;;;;;;5.73;1.40;;;22.60;97.80;;;;;;5050930;28;20444;-68
2022/09/09 11:26:34;;;;;;;4.70;2.23;;;21.20;99.90;;;;;;5050268;28;20448;-67
2022/09/09 11:29:34;;;;;;;5.57;2.20;;;19.60;99.90;;;;;;5044670;28;20531;-67
2022/09/09 11:32:13;;;;;;;5.37;1.40;;;18.00;99.90;;;;;;5043648;28;20456;-67
2022/09/09 11:34:52;;;;;;;7.60;1.87;;;17.20;99.90;;;;;;5046054;28;21149;-67
2022/09/09 11:37:45;;;;;;;4.33;1.90;;;16.80;99.90;;;;;;5048606;28;20441;-67
2022/09/09 11:40:23;;;;;;;6.57;2.53;;;16.60;99.90;;;;;;5050482;28;20476;-67
2022/09/09 11:43:01;;;;;;;4.70;1.70;;;16.60;99.90;;;;;;5050101;28;20951;-67
2022/09/09 11:45:30;;;;;;;3.23;1.27;;;16.80;99.90;;;;;;5049204;28;20947;-67
2022/09/09 11:47:58;;;;;;;3.50;1.23;;;17.10;99.90;;;;;;5051290;28;20436;-68
2022/09/09 11:50:35;;;;;;;2.80;1.37;;;17.30;99.90;;;;;;5051091;28;20475;-67
2022/09/09 11:53:22;;;;;;;3.27;1.10;;;17.60;99.90;;;;;;5044916;28;20452;-67
2022/09/09 11:56:00;;;;;;;4.10;1.30;;;18.00;99.90;;;;;;5041611;28;20535;-69
2022/09/09 11:58:32;;;;;;;2.43;1.00;;;18.10;99.90;;;;;;5042375;28;20484;-67
2022/09/09 12:00:59;;;;;;;1.40;1.00;;;18.20;99.90;;;;;;5041101;28;20503;-67
2022/09/09 12:03:44;;;;;;;2.80;1.10;;;18.50;99.90;;;;;;5043204;28;20444;-67
2022/09/09 12:06:16;;;;;;;1.57;0.80;;;18.80;99.90;;;;;;5041976;28;20476;-67
2022/09/09 12:08:46;;;;;;;1.30;0.80;;;18.90;99.90;;;;;;5042192;28;20878;-68
2022/09/09 12:11:24;;;;;;;1.10;0.60;;;18.90;99.90;;;;;;5046412;28;20511;-68
2022/09/09 12:13:54;;;;;;;1.73;0.70;;;19.10;99.90;;;;;;5049711;28;20444;-68
2022/09/09 12:16:31;;;;;;;3.60;0.90;;;19.70;99.90;;;;;;5046445;28;20448;-68
2022/09/09 12:19:08;;;;;;;2.03;0.70;;;20.40;99.90;;;;;;5048570;28;20447;-68
2022/09/09 12:21:44;;;;;;;2.87;0.67;;;21.10;99.90;;;;;;5050416;28;20472;-68
2022/09/09 12:24:12;;;;;;;1.50;0.70;;;21.80;99.90;;;;;;5049705;28;20832;-68
2022/09/09 12:26:45;;;;;;;0.90;0.60;;;22.90;99.90;;;;;;5047609;28;20459;-68
2022/09/09 12:29:23;;;;;;;1.10;0.60;;;23.10;99.90;;;;;;5049719;28;20448;-68
2022/09/09 12:31:57;;;;;;;1.70;1.00;;;23.70;99.90;;;;;;5047127;28;20472;-67
2022/09/09 12:34:33;;;;;;;1.20;0.60;;;24.50;98.70;;;;;;5039851;28;21011;-67
2022/09/09 12:37:05;;;;;;;1.00;0.50;;;25.10;96.40;;;;;;5046968;28;20486;-67
2022/09/09 12:39:37;;;;;;;2.60;0.70;;;26.30;96.30;;;;;;5046239;28;20945;-66
2022/09/09 12:42:05;;;;;;;1.50;0.70;;;27.50;92.20;;;;;;5048897;28;20993;-66
2022/09/09 12:44:32;;;;;;;2.80;0.60;;;28.10;92.10;;;;;;5049652;28;20841;-66
2022/09/09 12:47:02;;;;;;;2.03;0.90;;;28.00;90.00;;;;;;5047049;28;20819;-68
2022/09/09 12:49:33;;;;;;;1.30;0.80;;;27.40;89.90;;;;;;5032910;28;20448;-67
2022/09/09 12:52:03;;;;;;;1.90;0.80;;;25.80;90.50;;;;;;5048527;28;20551;-66
2022/09/09 12:54:30;;;;;;;3.00;1.30;;;24.10;92.40;;;;;;5048468;28;20488;-65
2022/09/09 12:56:58;;;;;;;2.33;0.80;;;23.40;93.20;;;;;;5049774;28;20451;-66
2022/09/09 12:59:26;;;;;;;1.83;0.63;;;23.00;93.90;;;;;;5048315;28;20455;-66
2022/09/09 13:01:59;;;;;;;3.87;0.70;;;22.80;95.10;;;;;;5045963;28;21038;-66
2022/09/09 13:04:26;;;;;;;1.17;0.70;;;22.50;95.30;;;;;;5046661;28;20444;-66
2022/09/09 13:06:53;;;;;;;5.50;0.70;;;22.40;94.80;;;;;;5048078;28;20443;-66
2022/09/09 13:09:21;;;;;;;1.60;0.67;;;22.60;96.00;;;;;;5047802;28;20452;-66